createdAt,value
2019-02-07T00:02:56.281Z,98764.09
2019-02-07T00:08:00.984Z,98755.70
2019-02-07T00:13:05.626Z,98746.48
2019-02-07T00:18:09.983Z,98743.59
2019-02-07T00:23:14.321Z,98719.55
2019-02-07T00:28:18.591Z,98725.45
2019-02-07T00:33:23.801Z,98718.05
2019-02-07T00:38:30.108Z,98703.62
2019-02-07T00:43:34.362Z,98689.24
2019-02-07T00:48:38.620Z,98687.86
2019-02-07T00:53:43.201Z,98681.00
2019-02-07T00:58:47.436Z,98671.12
2019-02-07T01:03:51.784Z,98664.17
2019-02-07T01:08:56.122Z,98651.30
2019-02-07T01:14:01.118Z,98645.41
2019-02-07T01:19:05.479Z,98643.63
2019-02-07T01:24:09.743Z,98632.45
2019-02-07T01:29:13.999Z,98632.75
2019-02-07T01:34:18.352Z,98620.28
2019-02-07T01:39:23.130Z,98614.31
2019-02-07T01:44:27.372Z,98610.28
2019-02-07T01:49:31.707Z,98588.70
2019-02-07T01:54:36.308Z,98584.03
2019-02-07T01:59:40.594Z,98580.73
2019-02-07T02:04:44.931Z,98571.16
2019-02-07T02:09:49.290Z,98564.59
2019-02-07T02:14:53.542Z,98552.98
2019-02-07T02:19:57.882Z,98536.03
2019-02-07T02:25:02.423Z,98530.37
2019-02-07T02:30:09.782Z,98513.84
2019-02-07T02:35:14.234Z,98503.65
2019-02-07T02:40:19.011Z,98511.85
2019-02-07T02:45:35.429Z,98498.73
2019-02-07T02:50:29.702Z,98482.66
2019-02-07T02:55:35.975Z,98475.25
2019-02-07T03:01:03.628Z,98463.48
2019-02-07T03:06:26.898Z,98469.32
2019-02-07T03:11:48.988Z,98462.01
2019-02-07T03:17:10.847Z,98461.89
2019-02-07T03:22:34.037Z,98450.31
2019-02-07T03:27:53.269Z,98429.56
2019-02-07T03:33:15.185Z,98414.38
2019-02-07T03:38:41.813Z,98420.24
2019-02-07T03:44:04.974Z,98405.34
2019-02-07T03:49:16.361Z,98401.46
2019-02-07T03:54:45.894Z,98396.92
2019-02-07T04:00:09.088Z,98405.12
2019-02-07T04:05:32.757Z,98384.66
2019-02-07T04:11:11.122Z,98380.15
2019-02-07T04:16:34.072Z,98356.99
2019-02-07T04:21:53.028Z,98346.23
2019-02-07T04:27:17.690Z,98343.77
2019-02-07T04:32:44.000Z,98354.49
2019-02-07T04:37:59.287Z,98347.55
2019-02-07T04:43:21.386Z,98343.38
2019-02-07T04:48:43.235Z,98334.95
2019-02-07T04:54:00.524Z,98333.80
2019-02-07T04:59:15.527Z,98324.28
2019-02-07T05:04:35.827Z,98312.41
2019-02-07T05:10:08.548Z,98308.95
2019-02-07T05:15:47.715Z,98300.97
2019-02-07T05:21:06.440Z,98292.64
2019-02-07T05:26:38.314Z,98278.97
2019-02-07T05:32:10.384Z,98286.80
2019-02-07T05:37:42.653Z,98277.22
2019-02-07T05:42:56.805Z,98282.91
2019-02-07T05:48:27.183Z,98276.24
2019-02-07T05:53:50.423Z,98262.89
2019-02-07T05:59:12.450Z,98263.27
2019-02-07T06:04:54.945Z,98217.55
2019-02-07T06:10:18.342Z,98241.86
2019-02-07T06:15:41.847Z,98234.03
2019-02-07T06:21:11.442Z,98226.31
2019-02-07T06:26:33.496Z,98221.41
2019-02-07T06:31:55.403Z,98221.27
2019-02-07T06:37:15.153Z,98215.64
2019-02-07T06:42:29.932Z,98208.56
2019-02-07T06:48:05.493Z,98203.47
2019-02-07T06:53:28.686Z,98196.53
2019-02-07T06:58:51.049Z,98203.75
2019-02-07T07:04:14.331Z,98195.22
2019-02-07T07:09:42.398Z,98195.42
2019-02-07T07:15:02.701Z,98195.08
2019-02-07T07:20:27.690Z,98194.77
2019-02-07T07:25:50.072Z,98186.60
2019-02-07T07:31:16.244Z,98182.80
2019-02-07T07:36:33.878Z,98179.23
2019-02-07T07:42:10.232Z,98165.13
2019-02-07T07:47:35.736Z,98167.83
2019-02-07T07:52:42.771Z,98175.16
2019-02-07T07:57:57.074Z,98166.06
2019-02-07T08:03:19.278Z,98175.27
2019-02-07T08:08:36.754Z,98162.70
2019-02-07T08:14:02.725Z,98132.67
2019-02-07T08:19:23.495Z,98159.21
2019-02-07T08:24:46.786Z,98170.41
2019-02-07T08:30:09.986Z,98173.63
2019-02-07T08:35:32.940Z,98136.47
2019-02-07T08:41:02.526Z,98175.67
2019-02-07T08:46:25.856Z,98164.98
2019-02-07T08:51:58.145Z,98168.54
2019-02-07T08:57:36.812Z,98164.75
2019-02-07T09:02:58.687Z,98166.52
2019-02-07T09:08:18.506Z,98160.56
2019-02-07T09:13:44.793Z,98161.72
2019-02-07T09:19:07.994Z,98151.78
2019-02-07T09:24:46.909Z,98152.91
2019-02-07T09:30:22.248Z,98129.98
2019-02-07T09:36:04.819Z,98103.87
2019-02-07T09:41:38.044Z,98135.77
2019-02-07T09:47:09.322Z,98140.58
2019-02-07T09:52:35.414Z,98150.17
2019-02-07T09:57:45.678Z,98149.48
2019-02-07T10:02:57.842Z,98146.98
2019-02-07T10:08:39.204Z,98144.46
2019-02-07T10:14:01.244Z,98141.56
2019-02-07T10:19:27.733Z,98128.47
2019-02-07T10:24:56.995Z,98130.19
2019-02-07T10:30:18.855Z,98138.94
2019-02-07T10:35:48.549Z,98134.30
2019-02-07T10:41:02.595Z,98139.86
2019-02-07T10:46:28.869Z,98156.61
2019-02-07T10:52:07.299Z,98161.02
2019-02-07T10:57:37.043Z,98159.70
2019-02-07T11:03:06.554Z,98175.80
2019-02-07T11:08:42.279Z,98152.26
2019-02-07T11:13:59.628Z,98148.20
2019-02-07T11:19:22.973Z,98133.11
2019-02-07T11:24:48.160Z,98135.55
2019-02-07T11:30:15.153Z,98137.82
2019-02-07T11:35:56.824Z,98116.27
2019-02-07T11:41:12.810Z,98107.74
2019-02-07T11:46:26.665Z,98115.73
2019-02-07T11:51:53.082Z,98120.85
2019-02-07T11:57:18.744Z,98138.50
2019-02-07T12:02:36.912Z,98120.13
2019-02-07T12:08:00.061Z,98109.64
2019-02-07T12:13:23.778Z,98110.42
2019-02-07T12:19:02.338Z,98109.59
2019-02-07T12:24:29.118Z,98100.11
2019-02-07T12:29:58.362Z,98089.61
2019-02-07T12:35:21.625Z,98078.50
2019-02-07T12:40:51.122Z,98079.30
2019-02-07T12:46:23.403Z,98082.14
2019-02-07T12:51:49.671Z,98088.12
2019-02-07T12:57:11.541Z,98088.88
2019-02-07T13:02:33.853Z,98090.26
2019-02-07T13:07:49.352Z,98101.23
2019-02-07T13:13:07.374Z,98086.64
2019-02-07T13:18:33.618Z,98077.26
2019-02-07T13:24:09.301Z,98088.05
2019-02-07T13:29:23.520Z,98073.88
2019-02-07T13:34:55.728Z,98079.03
2019-02-07T13:40:21.899Z,98073.56
2019-02-07T13:45:33.767Z,98072.38
2019-02-07T13:50:57.040Z,98083.84
2019-02-07T13:56:23.460Z,98082.88
2019-02-07T14:01:49.772Z,98080.61
2019-02-07T14:07:23.110Z,98088.47
2019-02-07T14:12:52.475Z,98095.81
2019-02-07T14:18:24.567Z,98095.19
2019-02-07T14:23:48.299Z,98088.58
2019-02-07T14:29:08.710Z,98105.83
2019-02-07T14:34:26.122Z,98101.85
2019-02-07T14:39:50.883Z,98113.38
2019-02-07T14:45:20.665Z,98110.26
2019-02-07T14:50:42.485Z,98126.28
2019-02-07T14:55:34.001Z,98134.00
2019-02-07T15:00:38.331Z,98129.56
2019-02-07T15:05:42.602Z,98133.42
2019-02-07T15:10:46.944Z,98133.78
2019-02-07T15:15:51.365Z,98136.89
2019-02-07T15:20:56.058Z,98139.31
2019-02-07T15:26:00.380Z,98153.53
2019-02-07T15:31:04.826Z,98156.69
2019-02-07T15:36:10.639Z,98156.56
2019-02-07T15:41:16.095Z,98164.87
2019-02-07T15:46:21.219Z,98160.64
2019-02-07T15:51:25.798Z,98156.58
2019-02-07T15:56:30.168Z,98166.41
2019-02-07T16:01:42.306Z,98168.36
2019-02-07T16:06:46.870Z,98164.73
2019-02-07T16:11:51.904Z,98164.50
2019-02-07T16:16:56.775Z,98169.27
2019-02-07T16:22:02.053Z,98171.55
2019-02-07T16:27:06.443Z,98181.63
2019-02-07T16:32:11.180Z,98183.25
2019-02-07T16:37:15.499Z,98193.41
2019-02-07T16:42:20.143Z,98190.77
2019-02-07T16:47:24.823Z,98188.71
2019-02-07T16:52:30.772Z,98187.61
2019-02-07T16:57:35.063Z,98194.00
2019-02-07T17:02:40.159Z,98187.48
2019-02-07T17:07:48.101Z,98181.09
2019-02-07T17:12:52.404Z,98189.17
2019-02-07T17:17:57.053Z,98183.61
2019-02-07T17:23:01.665Z,98189.13
2019-02-07T17:28:06.283Z,98195.84
2019-02-07T17:33:10.785Z,98199.40
2019-02-07T17:38:15.116Z,98199.89
2019-02-07T17:43:19.532Z,98205.81
2019-02-07T17:48:24.209Z,98214.71
2019-02-07T17:53:28.719Z,98219.31
2019-02-07T17:58:33.054Z,98222.88
2019-02-07T18:03:37.451Z,98227.06
2019-02-07T18:08:42.404Z,98228.69
2019-02-07T18:13:46.891Z,98239.77
2019-02-07T18:18:51.147Z,98238.02
2019-02-07T18:23:55.898Z,98243.09
2019-02-07T18:29:00.198Z,98247.06
2019-02-07T18:34:05.127Z,98254.63
2019-02-07T18:39:10.853Z,98267.91
2019-02-07T18:44:15.101Z,98262.25
2019-02-07T18:49:19.460Z,98273.27
2019-02-07T18:54:23.768Z,98279.37
2019-02-07T18:59:28.356Z,98278.70
2019-02-07T19:04:32.682Z,98270.77
2019-02-07T19:09:37.268Z,98283.16
2019-02-07T19:14:43.682Z,98288.82
2019-02-07T19:19:49.812Z,98296.78
2019-02-07T19:24:54.129Z,98298.84
2019-02-07T19:29:58.697Z,98298.91
2019-02-07T19:35:11.155Z,98299.87
2019-02-07T19:40:16.124Z,98305.09
2019-02-07T19:45:21.712Z,98314.31
2019-02-07T19:50:27.392Z,98318.73
2019-02-07T19:55:31.753Z,98326.02
2019-02-07T20:00:39.481Z,98332.39
2019-02-07T20:05:44.006Z,98329.38
2019-02-07T20:10:48.362Z,98342.27
2019-02-07T20:15:57.016Z,98333.08
2019-02-07T20:21:01.448Z,98334.41
2019-02-07T20:26:06.764Z,98346.41
2019-02-07T20:31:12.126Z,98352.66
2019-02-07T20:36:16.967Z,98359.27
2019-02-07T20:41:21.279Z,98372.74
2019-02-07T20:46:25.801Z,98383.11
2019-02-07T20:51:30.467Z,98382.86
2019-02-07T20:56:36.124Z,98382.12
2019-02-07T21:01:41.395Z,98391.39
2019-02-07T21:06:46.110Z,98394.07
2019-02-07T21:11:50.560Z,98399.68
2019-02-07T21:16:55.106Z,98403.08
2019-02-07T21:21:59.488Z,98404.98
2019-02-07T21:27:03.788Z,98412.64
2019-02-07T21:32:08.887Z,98403.82
2019-02-07T21:37:13.270Z,98406.36
2019-02-07T21:42:18.214Z,98410.83
2019-02-07T21:47:23.657Z,98420.82
2019-02-07T21:52:28.394Z,98423.09
2019-02-07T21:57:32.660Z,98423.25
2019-02-07T22:02:37.013Z,98432.35
2019-02-07T22:07:41.755Z,98437.92
2019-02-07T22:12:46.043Z,98442.25
2019-02-07T22:17:50.671Z,98451.14
2019-02-07T22:22:55.206Z,98450.82
2019-02-07T22:27:59.459Z,98456.94
2019-02-07T22:33:14.316Z,98452.48
2019-02-07T22:38:21.601Z,98463.32
2019-02-07T22:43:26.308Z,98459.01
2019-02-07T22:48:30.831Z,98453.01
2019-02-07T22:53:35.117Z,98461.77
2019-02-07T22:58:39.775Z,98463.66
2019-02-07T23:03:46.699Z,98471.98
2019-02-07T23:08:51.252Z,98472.53
2019-02-07T23:13:55.607Z,98465.75
2019-02-07T23:18:59.907Z,98471.91
2019-02-07T23:24:04.658Z,98475.52
2019-02-07T23:29:09.096Z,98486.47
2019-02-07T23:34:13.553Z,98481.17
2019-02-07T23:39:17.793Z,98494.27
2019-02-07T23:44:22.995Z,98493.05
2019-02-07T23:49:27.611Z,98502.59
2019-02-07T23:54:32.746Z,98502.49
2019-02-07T23:59:37.050Z,98495.41
